Time;durP1;ratioP1;P1;durP2;ratioP2;P2;SDS_P1;SDS_P2;PMS_P1;PMS_P2;Temp;Humidity;BMP_temperature;BMP_pressure;BME280_temperature;BME280_humidity;BME280_pressure;Samples;Min_cycle;Max_cycle;Signal;HPM_P1;HPM_P2
2022/10/01 00:02:25;;;;;;;6.90;4.20;;;9.80;99.90;;;;;;5104753;28;20225;-50
2022/10/01 00:04:51;;;;;;;5.10;4.07;;;9.80;99.90;;;;;;5087020;27;20244;-46
2022/10/01 00:07:18;;;;;;;5.10;4.43;;;9.80;99.90;;;;;;5105959;28;20593;-51
2022/10/01 00:09:45;;;;;;;4.37;4.03;;;9.80;99.90;;;;;;5104888;28;20196;-47
2022/10/01 00:12:15;;;;;;;4.60;4.20;;;9.80;99.90;;;;;;5107328;28;20666;-49
2022/10/01 00:14:43;;;;;;;5.17;3.97;;;9.70;99.90;;;;;;5103104;28;20193;-46
2022/10/01 00:17:10;;;;;;;6.00;3.73;;;9.70;99.90;;;;;;5107309;28;20685;-46
2022/10/01 00:19:37;;;;;;;5.23;3.70;;;9.70;99.90;;;;;;5091275;27;20953;-48
2022/10/01 00:22:04;;;;;;;4.33;3.80;;;9.70;99.90;;;;;;5106934;28;20204;-47
2022/10/01 00:24:31;;;;;;;4.40;4.00;;;9.70;99.90;;;;;;5101937;28;20244;-48
2022/10/01 00:26:59;;;;;;;3.73;3.43;;;9.70;99.90;;;;;;5107041;28;20716;-47
2022/10/01 00:29:27;;;;;;;5.13;3.80;;;9.70;99.90;;;;;;5104222;28;20231;-47
2022/10/01 00:31:54;;;;;;;3.43;3.23;;;9.70;99.90;;;;;;5106465;28;20525;-47
2022/10/01 00:34:21;;;;;;;4.57;3.33;;;9.70;99.90;;;;;;5092017;27;20205;-50
2022/10/01 00:36:48;;;;;;;4.17;3.77;;;9.70;99.90;;;;;;5104336;27;20219;-45
2022/10/01 00:39:15;;;;;;;3.80;3.50;;;9.70;99.90;;;;;;5106325;27;20561;-46
2022/10/01 00:41:42;;;;;;;3.60;3.30;;;9.70;99.90;;;;;;5103507;28;20209;-46
2022/10/01 00:44:32;;;;;;;3.80;3.40;;;9.70;99.90;;;;;;5104474;28;20221;-48
2022/10/01 00:47:13;;;;;;;3.87;3.53;;;9.70;99.90;;;;;;5106483;28;20237;-46
2022/10/01 00:49:42;;;;;;;3.30;3.00;;;9.70;99.90;;;;;;5091487;27;20209;-47
2022/10/01 00:52:15;;;;;;;6.93;3.23;;;9.70;99.90;;;;;;5106417;28;20189;-47
2022/10/01 00:54:46;;;;;;;3.30;3.00;;;9.70;99.90;;;;;;5082111;28;20910;-46
2022/10/01 00:57:16;;;;;;;3.67;3.37;;;9.70;99.90;;;;;;5085472;28;20289;-49
2022/10/01 00:59:45;;;;;;;2.70;2.50;;;9.70;99.90;;;;;;5082975;28;20918;-49
2022/10/01 01:02:13;;;;;;;6.77;3.80;;;9.70;99.90;;;;;;5085824;28;20190;-49
2022/10/01 01:04:40;;;;;;;6.50;3.03;;;9.70;99.90;;;;;;5096044;27;20216;-46
2022/10/01 01:07:08;;;;;;;3.57;3.23;;;9.70;99.90;;;;;;5092074;27;20218;-47
2022/10/01 01:09:44;;;;;;;5.43;3.00;;;9.60;99.90;;;;;;5102003;28;20219;-48
2022/10/01 01:12:21;;;;;;;4.13;3.73;;;9.60;99.90;;;;;;5106003;28;20193;-46
2022/10/01 01:14:56;;;;;;;4.80;2.83;;;9.60;99.90;;;;;;5103425;28;20188;-49
2022/10/01 01:17:29;;;;;;;3.27;2.90;;;9.60;99.90;;;;;;5103715;28;20220;-50
2022/10/01 01:20:15;;;;;;;3.60;3.30;;;9.60;99.90;;;;;;5105730;28;20225;-47
2022/10/01 01:22:47;;;;;;;3.80;3.30;;;9.60;99.90;;;;;;5091011;27;20209;-47
2022/10/01 01:25:19;;;;;;;3.77;3.27;;;9.60;99.90;;;;;;5103906;28;20217;-48
2022/10/01 01:27:56;;;;;;;5.13;3.07;;;9.60;99.90;;;;;;5103792;28;20207;-48
2022/10/01 01:30:23;;;;;;;4.17;3.07;;;9.60;99.90;;;;;;5103533;28;20189;-50
2022/10/01 01:32:53;;;;;;;3.20;2.90;;;9.60;99.90;;;;;;5104020;28;20182;-46
2022/10/01 01:35:25;;;;;;;4.93;3.17;;;9.70;99.90;;;;;;5111235;27;20614;-49
2022/10/01 01:37:57;;;;;;;3.13;2.87;;;9.70;99.90;;;;;;5103613;27;20243;-50
2022/10/01 01:40:25;;;;;;;3.10;2.90;;;9.70;99.90;;;;;;5122421;27;20204;-49
2022/10/01 01:42:54;;;;;;;3.03;2.83;;;9.70;99.90;;;;;;5124315;27;20684;-48
2022/10/01 01:45:29;;;;;;;3.60;3.30;;;9.80;99.90;;;;;;5122366;27;20224;-47
2022/10/01 01:47:59;;;;;;;3.97;3.07;;;9.80;99.90;;;;;;5125173;27;20208;-49
2022/10/01 01:50:28;;;;;;;4.37;3.17;;;9.80;99.90;;;;;;5122230;27;20190;-49
2022/10/01 01:52:55;;;;;;;4.43;2.80;;;9.80;99.90;;;;;;5104046;27;20214;-47
2022/10/01 01:55:24;;;;;;;4.17;2.97;;;9.80;99.90;;;;;;5099039;28;20189;-50
2022/10/01 01:57:52;;;;;;;3.37;3.07;;;9.90;99.90;;;;;;5103202;28;20229;-51
2022/10/01 02:00:19;;;;;;;3.90;3.20;;;9.90;99.90;;;;;;5101664;27;20737;-48
2022/10/01 02:02:51;;;;;;;4.53;3.10;;;9.90;99.90;;;;;;5102276;28;20973;-51
2022/10/01 02:05:23;;;;;;;3.77;2.57;;;10.00;99.90;;;;;;5110298;27;20208;-49
2022/10/01 02:08:16;;;;;;;3.07;2.63;;;10.00;99.90;;;;;;5099015;27;20282;-46
2022/10/01 02:11:02;;;;;;;5.20;2.63;;;10.00;99.90;;;;;;5093351;28;20205;-48
2022/10/01 02:13:39;;;;;;;3.73;2.63;;;10.10;99.90;;;;;;5099936;28;20204;-48
2022/10/01 02:16:17;;;;;;;3.97;2.33;;;10.10;99.90;;;;;;5104208;28;20193;-50
2022/10/01 02:18:52;;;;;;;3.07;2.77;;;10.20;99.90;;;;;;5101416;28;20189;-47
2022/10/01 02:21:23;;;;;;;2.60;2.40;;;10.20;99.90;;;;;;5102397;28;20631;-48
2022/10/01 02:23:56;;;;;;;2.47;2.27;;;10.20;99.90;;;;;;5086460;27;20221;-48
2022/10/01 02:26:25;;;;;;;3.97;2.40;;;10.30;99.90;;;;;;5098901;28;20197;-49
2022/10/01 02:28:56;;;;;;;2.73;2.53;;;10.30;99.90;;;;;;5103249;28;20208;-48
2022/10/01 02:31:23;;;;;;;4.30;2.60;;;10.20;99.90;;;;;;5101732;28;20202;-45
2022/10/01 02:33:55;;;;;;;3.83;2.40;;;10.30;99.90;;;;;;5101432;28;20189;-48
2022/10/01 02:36:25;;;;;;;2.63;2.43;;;10.30;99.90;;;;;;5110726;27;20196;-49
2022/10/01 02:38:54;;;;;;;3.47;2.53;;;10.30;99.90;;;;;;5103128;27;20220;-46
2022/10/01 02:41:28;;;;;;;2.60;2.40;;;10.30;99.90;;;;;;5098685;28;20194;-45
2022/10/01 02:43:59;;;;;;;2.80;2.60;;;10.40;99.90;;;;;;5102459;28;20205;-45
2022/10/01 02:46:29;;;;;;;2.40;2.20;;;10.40;99.90;;;;;;5100759;28;20684;-46
2022/10/01 02:49:00;;;;;;;4.23;2.57;;;10.40;99.90;;;;;;5103707;28;20190;-46
2022/10/01 02:51:38;;;;;;;3.83;2.33;;;10.50;99.90;;;;;;5100449;28;20707;-45
2022/10/01 02:54:11;;;;;;;2.77;2.57;;;10.50;99.90;;;;;;5102362;28;20189;-45
2022/10/01 02:59:22;;;;;;;2.93;2.07;;;10.50;99.90;;;;;;5089709;28;20236;-50
2022/10/01 03:01:49;;;;;;;2.67;2.47;;;10.50;99.90;;;;;;5101849;28;20188;-45
2022/10/01 03:04:18;;;;;;;3.37;2.30;;;10.60;99.90;;;;;;5101575;27;20213;-50
2022/10/01 03:06:45;;;;;;;2.37;2.17;;;10.60;99.90;;;;;;5112416;27;20204;-49
2022/10/01 03:09:13;;;;;;;2.70;2.33;;;10.60;99.90;;;;;;5123258;27;20261;-48
2022/10/01 03:11:41;;;;;;;4.10;2.77;;;10.60;99.90;;;;;;5085005;27;20948;-45
2022/10/01 03:14:09;;;;;;;2.50;2.30;;;10.60;99.90;;;;;;5102171;28;20554;-46
2022/10/01 03:16:36;;;;;;;3.30;2.60;;;10.60;99.90;;;;;;5099146;28;20270;-48
2022/10/01 03:19:02;;;;;;;3.90;2.40;;;10.60;99.90;;;;;;5102949;28;20197;-47
2022/10/01 03:21:31;;;;;;;2.33;2.13;;;10.60;99.90;;;;;;5098894;28;20205;-48
2022/10/01 03:23:58;;;;;;;2.40;2.20;;;10.60;99.90;;;;;;5102066;28;20764;-46
2022/10/01 03:26:24;;;;;;;3.30;2.13;;;10.60;99.90;;;;;;5096432;28;20220;-49
2022/10/01 03:28:51;;;;;;;2.27;2.10;;;10.70;99.90;;;;;;5122411;27;20200;-45
2022/10/01 03:31:18;;;;;;;2.93;2.20;;;10.60;99.90;;;;;;5119852;27;20220;-48
2022/10/01 03:33:45;;;;;;;2.40;2.20;;;10.70;99.90;;;;;;5112409;27;20779;-49
2022/10/01 03:36:12;;;;;;;4.40;2.23;;;10.70;99.90;;;;;;5126926;27;20204;-49
2022/10/01 03:38:41;;;;;;;2.60;2.23;;;10.70;99.90;;;;;;5124469;27;21032;-45
2022/10/01 03:41:08;;;;;;;3.83;2.20;;;10.70;99.90;;;;;;5102414;27;20208;-50
2022/10/01 03:43:35;;;;;;;4.83;2.47;;;10.70;99.90;;;;;;5101349;28;20193;-45
2022/10/01 03:46:02;;;;;;;3.10;2.57;;;10.70;99.90;;;;;;5106827;28;20217;-47
2022/10/01 03:48:29;;;;;;;2.90;2.27;;;10.70;99.90;;;;;;5103717;28;20213;-47
2022/10/01 03:50:57;;;;;;;2.73;2.20;;;10.70;99.90;;;;;;5106440;28;20189;-48
2022/10/01 03:53:26;;;;;;;3.03;2.30;;;10.70;99.90;;;;;;5103697;28;20194;-47
2022/10/01 03:55:54;;;;;;;3.07;2.37;;;10.70;99.90;;;;;;5091872;27;20275;-45
2022/10/01 03:58:22;;;;;;;3.30;3.00;;;10.70;99.90;;;;;;5102240;28;20209;-49
2022/10/01 04:00:50;;;;;;;3.07;2.73;;;10.70;99.90;;;;;;5109920;27;20254;-46
2022/10/01 04:03:17;;;;;;;3.13;2.60;;;10.70;99.90;;;;;;5116661;27;20257;-48
2022/10/01 04:05:45;;;;;;;5.13;2.20;;;10.70;99.90;;;;;;5124415;27;20204;-46
2022/10/01 04:08:13;;;;;;;3.60;2.40;;;10.70;99.90;;;;;;5127024;27;20244;-47
2022/10/01 04:10:40;;;;;;;3.07;2.17;;;10.70;99.90;;;;;;5123807;27;20176;-45
2022/10/01 04:13:09;;;;;;;2.53;2.40;;;10.70;99.90;;;;;;5098396;27;20210;-50
2022/10/01 04:15:36;;;;;;;2.60;2.40;;;10.70;99.90;;;;;;5102083;28;20192;-50
2022/10/01 04:18:04;;;;;;;5.53;2.90;;;10.60;99.90;;;;;;5106443;27;20216;-47
2022/10/01 04:20:32;;;;;;;3.00;2.80;;;10.50;99.90;;;;;;5102309;28;20268;-45
2022/10/01 04:22:59;;;;;;;6.10;2.67;;;10.50;99.90;;;;;;5106015;28;20671;-47
2022/10/01 04:25:27;;;;;;;4.97;2.70;;;10.50;99.90;;;;;;5102532;28;20210;-50
2022/10/01 04:27:56;;;;;;;2.90;2.57;;;10.40;99.90;;;;;;5093904;27;20220;-47
2022/10/01 04:30:26;;;;;;;3.77;2.57;;;10.40;99.90;;;;;;5103670;28;20696;-49
2022/10/01 04:32:53;;;;;;;4.30;2.80;;;10.40;99.90;;;;;;5113944;27;20193;-47
2022/10/01 04:35:20;;;;;;;5.20;3.13;;;10.30;99.90;;;;;;5103126;28;20659;-47
2022/10/01 04:37:48;;;;;;;3.63;3.07;;;10.30;99.90;;;;;;5095348;27;20225;-48
2022/10/01 04:40:15;;;;;;;3.40;3.10;;;10.30;99.90;;;;;;5099944;28;20193;-47
2022/10/01 04:42:42;;;;;;;4.13;3.10;;;10.30;99.90;;;;;;5098744;28;20700;-48
2022/10/01 04:45:10;;;;;;;3.20;2.90;;;10.20;99.90;;;;;;5087135;27;20229;-49
2022/10/01 04:47:39;;;;;;;3.27;2.97;;;10.20;99.90;;;;;;5104658;28;20565;-46
2022/10/01 04:50:06;;;;;;;3.03;2.83;;;10.20;99.90;;;;;;5101250;28;20189;-53
2022/10/01 04:52:33;;;;;;;4.30;3.00;;;10.20;99.90;;;;;;5104188;28;20407;-45
2022/10/01 04:55:00;;;;;;;6.53;3.00;;;10.10;99.90;;;;;;5101205;28;20217;-47
2022/10/01 04:57:27;;;;;;;3.50;2.97;;;10.10;99.90;;;;;;5097198;28;20213;-46
2022/10/01 04:59:53;;;;;;;5.10;2.93;;;10.10;99.90;;;;;;5092097;27;20213;-48
2022/10/01 05:02:20;;;;;;;4.00;3.33;;;10.00;99.90;;;;;;5108127;27;20204;-49
2022/10/01 05:04:48;;;;;;;4.13;3.33;;;10.10;99.90;;;;;;5102986;28;20258;-46
2022/10/01 05:07:15;;;;;;;3.20;2.90;;;10.00;99.90;;;;;;5099687;28;20216;-50
2022/10/01 05:09:42;;;;;;;3.73;3.43;;;10.00;99.90;;;;;;5104358;28;20194;-48
2022/10/01 05:12:08;;;;;;;4.00;3.70;;;10.00;99.90;;;;;;5095076;28;20200;-48
2022/10/01 05:14:35;;;;;;;3.90;3.50;;;10.00;99.90;;;;;;5094405;27;20580;-47
2022/10/01 05:17:02;;;;;;;4.67;3.60;;;10.00;99.90;;;;;;5121056;27;20212;-48
2022/10/01 05:19:29;;;;;;;3.40;3.03;;;10.00;99.90;;;;;;5108599;27;20203;-47
2022/10/01 05:21:57;;;;;;;4.10;2.73;;;10.00;99.90;;;;;;5102023;28;20205;-46
2022/10/01 05:24:24;;;;;;;4.73;3.23;;;10.00;99.90;;;;;;5096043;27;20266;-51
2022/10/01 05:26:53;;;;;;;4.93;3.30;;;10.00;99.90;;;;;;5103329;28;20228;-48
2022/10/01 05:29:19;;;;;;;3.57;2.97;;;9.90;99.90;;;;;;5095060;28;20197;-48
2022/10/01 05:31:47;;;;;;;4.53;3.33;;;9.90;99.90;;;;;;5090541;27;20208;-45
2022/10/01 05:34:14;;;;;;;5.00;3.47;;;9.90;99.90;;;;;;5098115;28;20201;-47
2022/10/01 05:36:40;;;;;;;3.70;3.40;;;9.90;99.90;;;;;;5102713;27;20212;-49
2022/10/01 05:39:09;;;;;;;3.93;3.63;;;9.90;99.90;;;;;;5099385;28;20193;-48
2022/10/01 05:41:36;;;;;;;5.40;3.40;;;9.90;99.90;;;;;;5097351;27;20197;-45
2022/10/01 05:44:04;;;;;;;7.73;3.70;;;9.90;99.90;;;;;;5106320;27;20870;-48
2022/10/01 05:46:31;;;;;;;3.23;3.03;;;9.90;99.90;;;;;;5089337;27;20354;-50
2022/10/01 05:48:58;;;;;;;6.93;3.37;;;9.90;99.90;;;;;;5092810;28;20688;-49
2022/10/01 05:51:25;;;;;;;4.37;3.30;;;9.90;99.90;;;;;;5093987;27;21034;-45
2022/10/01 05:53:53;;;;;;;3.67;3.33;;;9.90;99.90;;;;;;5095835;28;20197;-48
2022/10/01 05:56:21;;;;;;;4.33;3.07;;;9.90;99.90;;;;;;5088107;27;20282;-46
2022/10/01 05:58:48;;;;;;;3.20;3.00;;;9.90;99.90;;;;;;5100303;28;20194;-48
2022/10/01 06:01:15;;;;;;;5.83;3.30;;;9.80;99.90;;;;;;5086147;27;21128;-49
2022/10/01 06:03:43;;;;;;;4.33;3.33;;;9.80;99.90;;;;;;5100917;28;20181;-47
2022/10/01 06:06:10;;;;;;;3.60;3.30;;;9.80;99.90;;;;;;5097520;27;20216;-47
2022/10/01 06:08:37;;;;;;;3.80;3.40;;;9.80;99.90;;;;;;5097104;27;20284;-50
2022/10/01 06:11:05;;;;;;;4.67;3.27;;;9.90;99.90;;;;;;5087546;28;20848;-46
2022/10/01 06:13:35;;;;;;;3.60;3.30;;;9.80;99.90;;;;;;5098679;27;20204;-48
2022/10/01 06:16:02;;;;;;;5.00;3.67;;;9.90;99.90;;;;;;5097488;28;20200;-53
2022/10/01 06:18:29;;;;;;;4.10;3.60;;;9.90;99.90;;;;;;5089623;27;20232;-48
2022/10/01 06:20:58;;;;;;;3.37;3.17;;;9.90;99.90;;;;;;5102825;27;20681;-50
2022/10/01 06:23:24;;;;;;;3.73;3.43;;;9.90;99.90;;;;;;5090424;27;20224;-45
2022/10/01 06:25:52;;;;;;;3.90;3.37;;;9.90;99.90;;;;;;5100796;28;20216;-52
2022/10/01 06:28:20;;;;;;;4.03;3.63;;;9.90;99.90;;;;;;5099177;27;20217;-48
2022/10/01 06:30:49;;;;;;;5.40;3.60;;;9.90;99.90;;;;;;5106808;27;20203;-49
2022/10/01 06:33:17;;;;;;;4.67;3.83;;;9.90;99.90;;;;;;5095728;27;20254;-49
2022/10/01 06:35:46;;;;;;;4.20;3.80;;;9.90;99.90;;;;;;5095231;28;20264;-45
2022/10/01 06:38:13;;;;;;;4.87;3.63;;;9.90;99.90;;;;;;5095829;28;20316;-45
2022/10/01 06:40:41;;;;;;;8.43;4.20;;;9.90;99.90;;;;;;5103547;28;20189;-48
2022/10/01 06:43:07;;;;;;;3.80;3.50;;;9.90;99.90;;;;;;5094935;27;20197;-47
2022/10/01 06:45:38;;;;;;;3.90;3.60;;;9.90;99.90;;;;;;5106822;27;20213;-48
2022/10/01 06:48:06;;;;;;;3.93;3.57;;;9.90;99.90;;;;;;5087770;27;20222;-46
2022/10/01 06:50:34;;;;;;;5.20;3.87;;;9.90;99.90;;;;;;5102176;28;20205;-46
2022/10/01 06:53:01;;;;;;;3.60;3.30;;;9.90;99.90;;;;;;5096710;28;20189;-50
2022/10/01 06:55:30;;;;;;;3.50;3.20;;;9.90;99.90;;;;;;5102153;28;20209;-48
2022/10/01 06:57:59;;;;;;;4.60;3.30;;;9.90;99.90;;;;;;5098209;28;20288;-48
2022/10/01 07:00:27;;;;;;;4.07;3.60;;;9.90;99.90;;;;;;5102520;27;20215;-46
2022/10/01 07:02:55;;;;;;;4.33;3.57;;;9.90;99.90;;;;;;5113750;27;20552;-49
2022/10/01 07:05:23;;;;;;;4.70;3.73;;;9.90;99.90;;;;;;5096480;27;20948;-47
2022/10/01 07:07:51;;;;;;;4.13;3.73;;;9.90;99.90;;;;;;5101685;28;20209;-49
2022/10/01 07:10:19;;;;;;;5.50;3.40;;;9.90;99.90;;;;;;5096958;28;20201;-47
2022/10/01 07:12:48;;;;;;;4.97;3.43;;;9.90;99.90;;;;;;5093523;28;20947;-47
2022/10/01 07:15:16;;;;;;;4.07;3.67;;;9.90;99.90;;;;;;5098685;28;20228;-47
2022/10/01 07:17:45;;;;;;;6.77;3.50;;;9.90;99.90;;;;;;5097559;27;20268;-45
2022/10/01 07:20:13;;;;;;;4.23;3.83;;;9.90;99.90;;;;;;5088539;28;20209;-48
2022/10/01 07:22:41;;;;;;;4.30;3.47;;;9.90;99.90;;;;;;5097852;28;20344;-49
2022/10/01 07:25:09;;;;;;;3.33;3.13;;;9.90;99.90;;;;;;5099015;28;20197;-46
2022/10/01 07:27:36;;;;;;;3.90;3.13;;;9.90;99.90;;;;;;5105956;28;20291;-46
2022/10/01 07:30:04;;;;;;;4.97;3.83;;;9.90;99.90;;;;;;5105741;27;20674;-47
2022/10/01 07:32:32;;;;;;;5.43;3.73;;;9.90;99.90;;;;;;5116345;28;20284;-47
2022/10/01 07:34:58;;;;;;;4.73;3.73;;;9.90;99.90;;;;;;5087212;28;20209;-45
2022/10/01 07:37:25;;;;;;;4.27;3.70;;;9.90;99.90;;;;;;5108047;28;20685;-46
2022/10/01 07:39:54;;;;;;;3.80;3.50;;;10.00;99.90;;;;;;5111082;28;20181;-50
2022/10/01 07:42:21;;;;;;;3.93;3.63;;;10.00;99.90;;;;;;5107441;28;20674;-50
2022/10/01 07:44:48;;;;;;;3.60;3.30;;;10.00;99.90;;;;;;5096417;27;20213;-46
2022/10/01 07:47:15;;;;;;;3.90;3.60;;;10.00;99.90;;;;;;5109307;28;20269;-48
2022/10/01 07:49:42;;;;;;;5.23;3.63;;;10.00;99.90;;;;;;5108079;28;20192;-46
2022/10/01 07:52:08;;;;;;;4.13;3.70;;;10.00;99.90;;;;;;5085703;28;20208;-45
2022/10/01 07:54:35;;;;;;;4.13;3.53;;;10.00;99.90;;;;;;5095557;28;20189;-46
2022/10/01 07:57:03;;;;;;;4.53;3.30;;;10.00;99.90;;;;;;5101531;28;20201;-48
2022/10/01 07:59:31;;;;;;;3.60;3.30;;;10.00;99.90;;;;;;5100540;28;20261;-48
2022/10/01 08:01:58;;;;;;;4.40;4.07;;;10.00;99.90;;;;;;5112025;28;20186;-48
2022/10/01 08:07:09;;;;;;;3.80;3.50;;;10.10;99.90;;;;;;5099223;27;20217;-47
2022/10/01 08:09:37;;;;;;;4.10;3.77;;;10.10;99.90;;;;;;5098501;28;20843;-45
2022/10/01 08:12:05;;;;;;;5.73;3.83;;;10.10;99.90;;;;;;5103424;28;20194;-49
2022/10/01 08:14:32;;;;;;;3.67;3.37;;;10.10;99.90;;;;;;5092179;28;20216;-49
2022/10/01 08:16:58;;;;;;;4.63;3.83;;;10.10;99.90;;;;;;5103045;28;20205;-48
2022/10/01 08:19:25;;;;;;;4.43;3.30;;;10.10;99.90;;;;;;5101132;28;20198;-50
2022/10/01 08:21:52;;;;;;;3.67;3.37;;;10.20;99.90;;;;;;5093071;27;23229;-50
2022/10/01 08:24:19;;;;;;;3.57;3.27;;;10.20;99.90;;;;;;5104930;28;20224;-49
2022/10/01 08:26:51;;;;;;;3.23;2.90;;;10.20;99.90;;;;;;5104216;28;20973;-45
2022/10/01 08:29:19;;;;;;;3.33;3.00;;;10.20;99.90;;;;;;5106525;28;20281;-49
2022/10/01 08:31:47;;;;;;;4.80;3.27;;;10.20;99.90;;;;;;5112707;27;20220;-48
2022/10/01 08:34:14;;;;;;;2.90;2.70;;;10.20;99.90;;;;;;5122342;27;20196;-49
2022/10/01 08:36:41;;;;;;;3.93;2.73;;;10.20;99.90;;;;;;5123043;27;20204;-46
2022/10/01 08:39:08;;;;;;;3.37;2.70;;;10.30;99.90;;;;;;5112548;27;20220;-50
2022/10/01 08:41:48;;;;;;;2.83;2.53;;;10.30;99.90;;;;;;5123172;27;20692;-48
2022/10/01 08:44:21;;;;;;;3.03;2.83;;;10.30;99.90;;;;;;5126156;27;20192;-49
2022/10/01 08:46:50;;;;;;;2.60;2.40;;;10.30;99.90;;;;;;5124842;27;20410;-48
2022/10/01 08:49:22;;;;;;;2.60;2.23;;;10.30;99.90;;;;;;5127072;27;20185;-46
2022/10/01 08:51:55;;;;;;;2.33;2.13;;;10.40;99.90;;;;;;5124758;27;20940;-47
2022/10/01 08:54:29;;;;;;;2.50;2.20;;;10.40;99.90;;;;;;5097590;27;20298;-47
2022/10/01 08:57:00;;;;;;;1.83;1.73;;;10.40;99.90;;;;;;5105654;28;20207;-46
2022/10/01 08:59:38;;;;;;;2.00;1.90;;;10.40;99.90;;;;;;5104106;28;20189;-50
2022/10/01 09:02:18;;;;;;;2.03;1.93;;;10.50;99.90;;;;;;5114792;27;20223;-47
2022/10/01 09:04:46;;;;;;;4.57;1.67;;;10.50;99.90;;;;;;5082014;28;20189;-48
2022/10/01 09:07:37;;;;;;;2.40;1.63;;;10.50;99.90;;;;;;5085125;28;20237;-46
2022/10/01 09:10:23;;;;;;;2.00;1.80;;;10.50;99.90;;;;;;5083344;27;20206;-48
2022/10/01 09:13:08;;;;;;;2.07;1.87;;;10.60;99.90;;;;;;5098760;28;20801;-48
2022/10/01 09:15:47;;;;;;;1.73;1.63;;;10.60;99.90;;;;;;5105865;28;20688;-46
2022/10/01 09:18:24;;;;;;;7.13;2.03;;;10.60;99.90;;;;;;5104027;28;20201;-45
2022/10/01 09:20:54;;;;;;;1.80;1.70;;;10.60;99.90;;;;;;5102452;28;20201;-49
2022/10/01 09:23:27;;;;;;;2.07;1.97;;;10.70;99.90;;;;;;5101061;28;20292;-45
2022/10/01 09:25:56;;;;;;;1.80;1.70;;;10.70;99.90;;;;;;5085814;27;20205;-47
2022/10/01 09:28:26;;;;;;;2.13;2.03;;;10.70;99.90;;;;;;5105559;27;20213;-49
2022/10/01 09:30:58;;;;;;;1.70;1.60;;;10.70;99.90;;;;;;5105527;27;20203;-49
2022/10/01 09:33:30;;;;;;;1.93;1.83;;;10.80;99.90;;;;;;5103497;27;20233;-46
2022/10/01 09:36:10;;;;;;;2.30;2.20;;;10.80;99.90;;;;;;5096833;28;20225;-46
2022/10/01 09:38:41;;;;;;;2.03;1.93;;;10.80;99.90;;;;;;5113325;27;20213;-48
2022/10/01 09:41:09;;;;;;;2.73;2.40;;;10.80;99.90;;;;;;5094040;27;20190;-48
2022/10/01 09:43:38;;;;;;;3.10;2.90;;;10.90;99.90;;;;;;5104199;28;20189;-46
2022/10/01 09:46:12;;;;;;;2.50;2.40;;;10.90;99.90;;;;;;5100722;28;20477;-48
2022/10/01 09:48:45;;;;;;;3.17;2.67;;;11.00;99.90;;;;;;5104933;28;20194;-45
2022/10/01 09:51:17;;;;;;;3.30;3.10;;;11.00;99.90;;;;;;5102114;28;20188;-47
2022/10/01 09:53:50;;;;;;;3.67;3.47;;;11.00;99.90;;;;;;5098388;27;20201;-48
2022/10/01 09:56:26;;;;;;;3.20;2.93;;;11.10;99.90;;;;;;5102612;27;20203;-46
2022/10/01 09:58:59;;;;;;;3.93;3.63;;;11.10;99.90;;;;;;5122379;27;20196;-47
2022/10/01 10:01:36;;;;;;;4.23;3.60;;;11.20;99.90;;;;;;5113516;27;20201;-46
2022/10/01 10:04:03;;;;;;;4.23;3.93;;;11.30;99.90;;;;;;5099858;28;20192;-45
2022/10/01 10:06:31;;;;;;;3.97;3.67;;;11.30;99.90;;;;;;5102647;28;20212;-47
2022/10/01 10:09:00;;;;;;;4.73;4.33;;;11.30;99.90;;;;;;5094691;27;20276;-49
2022/10/01 10:11:28;;;;;;;5.20;4.73;;;11.40;99.90;;;;;;5090922;27;20194;-47
2022/10/01 10:13:58;;;;;;;5.50;4.97;;;11.50;99.90;;;;;;5095473;27;20611;-50
2022/10/01 10:16:30;;;;;;;5.60;5.00;;;11.60;99.90;;;;;;5105052;27;20190;-46
2022/10/01 10:19:01;;;;;;;6.50;5.27;;;11.70;99.90;;;;;;5096332;27;20201;-48
2022/10/01 10:21:29;;;;;;;6.23;5.63;;;11.80;99.90;;;;;;5098918;28;20202;-46
2022/10/01 10:23:58;;;;;;;5.60;5.13;;;11.90;99.90;;;;;;5095372;27;20189;-46
2022/10/01 10:26:31;;;;;;;5.80;5.30;;;11.90;99.90;;;;;;5092409;27;20224;-47
2022/10/01 10:29:01;;;;;;;6.57;5.97;;;12.00;99.90;;;;;;5096855;27;20208;-48
2022/10/01 10:31:38;;;;;;;6.97;5.13;;;12.10;99.90;;;;;;5093687;27;20194;-46
2022/10/01 10:34:12;;;;;;;7.13;5.77;;;12.10;99.90;;;;;;5099771;28;20183;-45
2022/10/01 10:36:40;;;;;;;7.47;5.90;;;12.10;99.90;;;;;;5103991;28;20262;-49
2022/10/01 10:39:20;;;;;;;6.13;5.73;;;12.20;99.90;;;;;;5101068;28;20188;-46
2022/10/01 10:41:49;;;;;;;6.47;5.87;;;12.30;99.90;;;;;;5091882;27;20280;-50
2022/10/01 10:44:20;;;;;;;8.20;5.87;;;12.30;99.90;;;;;;5101282;28;20908;-46
2022/10/01 10:46:49;;;;;;;7.00;6.37;;;12.40;99.90;;;;;;5099113;28;20221;-50
2022/10/01 10:49:21;;;;;;;8.87;6.70;;;12.50;99.90;;;;;;5102470;28;20894;-46
2022/10/01 10:51:52;;;;;;;8.30;7.50;;;12.60;99.90;;;;;;5094177;28;20205;-46
2022/10/01 10:54:23;;;;;;;7.57;6.83;;;12.80;99.90;;;;;;5102186;28;20198;-46
2022/10/01 10:56:56;;;;;;;8.03;6.70;;;13.00;99.90;;;;;;5094401;27;20209;-43
2022/10/01 10:59:23;;;;;;;6.70;6.07;;;13.20;99.90;;;;;;5100073;27;20204;-46
2022/10/01 11:01:51;;;;;;;6.17;5.67;;;13.30;99.90;;;;;;5095805;27;20208;-47
2022/10/01 11:04:27;;;;;;;8.67;6.30;;;13.40;99.90;;;;;;5101630;28;20190;-46
2022/10/01 11:06:56;;;;;;;7.13;5.70;;;;;;;;;;5096781;27;20223;-47
2022/10/01 11:09:26;;;;;;;8.33;4.90;;;;;;;;;;5103596;27;20266;-45
2022/10/01 11:11:59;;;;;;;5.60;5.07;;;14.20;99.90;;;;;;5098341;28;20197;-50
2022/10/01 11:14:40;;;;;;;5.13;4.60;;;13.90;99.90;;;;;;5091602;27;20565;-46
2022/10/01 11:17:27;;;;;;;4.90;4.50;;;13.90;99.90;;;;;;5120731;27;20204;-46
2022/10/01 11:20:18;;;;;;;8.50;5.00;;;14.10;99.90;;;;;;5121488;27;20711;-50
2022/10/01 11:22:52;;;;;;;9.23;4.13;;;;;;;;;;5108382;27;20292;-47
2022/10/01 11:25:29;;;;;;;3.97;3.50;;;15.30;99.90;;;;;;5099833;27;20213;-46
2022/10/01 11:28:06;;;;;;;5.53;3.47;;;14.50;99.90;;;;;;5099960;28;20216;-49
2022/10/01 11:30:41;;;;;;;8.17;3.67;;;14.70;99.90;;;;;;5092713;28;20212;-46
2022/10/01 11:33:20;;;;;;;7.57;3.20;;;14.70;99.90;;;;;;5106800;28;20262;-46
2022/10/01 11:35:54;;;;;;;6.30;2.57;;;14.80;99.90;;;;;;5112087;28;20196;-46
2022/10/01 11:38:38;;;;;;;3.73;2.70;;;14.90;99.90;;;;;;5102456;28;20244;-48
2022/10/01 11:41:14;;;;;;;4.53;2.60;;;14.90;99.90;;;;;;5095259;28;20985;-48
2022/10/01 11:43:45;;;;;;;3.60;2.00;;;15.00;99.90;;;;;;5102352;28;20539;-52
2022/10/01 11:46:15;;;;;;;3.93;2.13;;;;;;;;;;5080755;28;20201;-50
2022/10/01 11:48:48;;;;;;;5.27;2.20;;;15.00;99.90;;;;;;5106868;28;20213;-47
2022/10/01 11:51:17;;;;;;;9.17;2.53;;;15.10;99.90;;;;;;5096936;28;20578;-47
2022/10/01 11:53:49;;;;;;;7.17;2.53;;;15.20;99.90;;;;;;5096640;27;20333;-47
2022/10/01 11:59:12;;;;;;;6.50;1.90;;;15.30;99.90;;;;;;5101363;27;20197;-48
2022/10/01 12:01:42;;;;;;;7.10;2.20;;;15.30;99.90;;;;;;5090338;27;21012;-46
2022/10/01 12:04:24;;;;;;;4.37;2.40;;;15.40;99.90;;;;;;5105478;28;20674;-46
2022/10/01 12:06:56;;;;;;;5.30;1.83;;;15.40;99.90;;;;;;5102591;27;20212;-50
2022/10/01 12:09:31;;;;;;;9.47;1.83;;;15.40;99.90;;;;;;5104380;28;20192;-48
2022/10/01 12:12:01;;;;;;;4.73;1.80;;;15.30;99.90;;;;;;5104064;28;20189;-50
2022/10/01 12:14:33;;;;;;;8.33;2.13;;;15.20;99.90;;;;;;5090570;27;20201;-46
2022/10/01 12:17:11;;;;;;;5.90;1.90;;;15.30;99.90;;;;;;5101108;28;20201;-47
2022/10/01 12:19:44;;;;;;;3.13;2.10;;;15.40;99.90;;;;;;5097175;27;20197;-47
2022/10/01 12:22:15;;;;;;;6.13;2.00;;;15.50;99.90;;;;;;5100190;27;21156;-46
2022/10/01 12:24:44;;;;;;;5.97;1.33;;;15.60;99.90;;;;;;5098909;27;20212;-46
2022/10/01 12:27:29;;;;;;;4.53;1.80;;;15.70;99.90;;;;;;5110337;27;20229;-49
2022/10/01 12:30:01;;;;;;;3.40;1.43;;;15.80;99.90;;;;;;5095518;27;20198;-46
2022/10/01 12:32:38;;;;;;;4.30;1.47;;;15.90;99.90;;;;;;5103343;27;20197;-47
2022/10/01 12:35:20;;;;;;;4.33;1.33;;;16.00;99.90;;;;;;5110635;27;20211;-48
2022/10/01 12:38:00;;;;;;;2.43;1.03;;;16.10;99.90;;;;;;5104573;27;20232;-46
2022/10/01 12:40:39;;;;;;;6.80;1.43;;;16.10;99.90;;;;;;5098028;28;20194;-46
2022/10/01 12:43:46;;;;;;;4.87;1.30;;;16.10;99.90;;;;;;5101642;27;20677;-46
2022/10/01 12:46:26;;;;;;;5.73;1.40;;;16.10;99.90;;;;;;5064812;28;20250;-49
2022/10/01 12:48:58;;;;;;;4.40;1.57;;;;;;;;;;5064298;28;20309;-48
2022/10/01 12:51:37;;;;;;;6.67;1.10;;;16.30;99.90;;;;;;5089759;27;20201;-46
2022/10/01 12:54:11;;;;;;;4.13;1.00;;;;;;;;;;5105143;27;20202;-48
2022/10/01 12:56:41;;;;;;;8.07;1.47;;;16.60;99.90;;;;;;5105974;27;20421;-48
2022/10/01 12:59:28;;;;;;;3.03;0.97;;;16.70;99.90;;;;;;5119442;27;20657;-46
2022/10/01 13:02:09;;;;;;;5.03;1.10;;;16.70;99.90;;;;;;5087742;27;20201;-47
2022/10/01 13:04:55;;;;;;;4.87;1.30;;;16.50;99.90;;;;;;5104019;27;20289;-47
2022/10/01 13:07:46;;;;;;;3.70;1.10;;;16.30;99.90;;;;;;5115224;27;20299;-49
2022/10/01 13:10:30;;;;;;;4.70;0.97;;;16.10;99.90;;;;;;5111042;27;20688;-47
2022/10/01 13:13:06;;;;;;;4.20;0.90;;;16.10;99.90;;;;;;5104603;27;20641;-45
2022/10/01 13:15:37;;;;;;;6.37;1.27;;;15.90;99.90;;;;;;5097912;27;20208;-48
2022/10/01 13:18:13;;;;;;;8.23;1.43;;;15.80;99.90;;;;;;5090733;27;20244;-46
2022/10/01 13:20:50;;;;;;;4.10;1.13;;;15.40;99.90;;;;;;5099745;27;20200;-46